Pensacola, FL (32501)

4:58 PM CDT on July 24, 2016 (GMT -0500)
Central Office Complex | | Change Station

Elev 107 ft 30.45 °N, 87.23 °W | Updated 8 minutes ago

Scattered Clouds
Scattered Clouds
85.8 °F
Feels Like 94 °F
N
7.5
Wind Variable Wind from WNW
Gusts 9.7 mph

Today
High -- | Low -- °F
--% Chance of Precip.
Yesterday
High -- | Low -- °F
Precip. -- in
Pressure 29.97 in
Visibility 10.0 miles
Clouds Scattered Clouds 2700 ft
Heat Index 94 °F
Dew Point 76 °F
Humidity 69%
Rainfall Not available.
Snow Depth Not available.
6:02 AM 7:47 PM
Waning Gibbous, 73% visible
METAR KPNS 242153Z 12010KT 10SM SCT027 30/24 A2997 RMK AO2 SLP148 T03000239
Pressure 29.97 in
Visibility 10.0 miles
Clouds Scattered Clouds 2700 ft
Heat Index 94 °F
Dew Point 76 °F
Humidity 69%
Rainfall Not available.
Snow Depth Not available.
6:02 AM 7:47 PM
Waning Gibbous, 73% visible
METAR KPNS 242153Z 12010KT 10SM SCT027 30/24 A2997 RMK AO2 SLP148 T03000239

10-Day Weather Forecast

Almanac

Astronomy

Jul. 24, 2016 Rise Set
Actual Time
Civil Twilight
Nautical Twilight
Astronomical Twilight
Moon
Length of Visible Light
Length of Day
Tomorrow will be .
, % of the Moon is Illuminated

Today's Extremes

State Highs State Lows

Community

WunderPhotos

Upload Photos

1,927,195 photos uploaded!

WunderBlog® & News

Nearby

Air Quality

  Air Quality AQ Index Pollutant
Not available.

Snow Depth

Station Depth Elevation

Earthquake Activity

City Distance Mag. Time & Date
Minimum magnitude displayed is 2.5.

Coastal Water Temperatures

Place Temperature

Stations

Nearby Weather Stations

Station Location Temp. Windchill Dew Point Humidity Wind Precip. Elev Updated Type
                   

Watches & Warnings

There are currently no watches in effect.